createdAt,value
2023-01-18T00:01:43.984Z,99179.09
2023-01-18T00:04:10.406Z,99179.56
2023-01-18T00:06:37.850Z,99182.44
2023-01-18T00:09:04.299Z,99180.03
2023-01-18T00:11:30.779Z,99179.44
2023-01-18T00:14:02.919Z,99179.44
2023-01-18T00:16:30.478Z,99174.03
2023-01-18T00:18:58.764Z,99177.75
2023-01-18T00:21:47.083Z,99179.81
2023-01-18T00:24:15.143Z,99184.31
2023-01-18T00:27:39.371Z,99185.38
2023-01-18T00:30:12.102Z,99178.44
2023-01-18T00:32:38.548Z,99171.75
2023-01-18T00:35:16.236Z,99193.50
2023-01-18T00:37:42.827Z,99187.13
2023-01-18T00:40:16.363Z,99186.56
2023-01-18T00:43:01.281Z,99186.09
2023-01-18T00:45:55.609Z,99188.19
2023-01-18T00:48:22.044Z,99195.13
2023-01-18T00:50:56.587Z,99197.78
2023-01-18T00:53:29.694Z,99200.19
2023-01-18T00:56:28.822Z,99193.03
2023-01-18T00:59:02.401Z,99195.13
2023-01-18T01:01:28.874Z,99200.44
2023-01-18T01:04:25.295Z,99194.06
2023-01-18T01:06:51.909Z,99195.91
2023-01-18T01:09:22.968Z,99197.78
2023-01-18T01:12:12.575Z,99202.53
2023-01-18T01:15:07.379Z,99203.56
2023-01-18T01:17:54.882Z,99198.47
2023-01-18T01:20:41.040Z,99196.06
2023-01-18T01:23:41.577Z,99192.81
2023-01-18T01:26:13.524Z,99203.47
2023-01-18T01:28:43.194Z,99208.22
2023-01-18T01:31:12.168Z,99204.72
2023-01-18T01:33:39.003Z,99206.59
2023-01-18T01:36:12.158Z,99199.66
2023-01-18T01:38:38.911Z,99206.81
2023-01-18T01:41:29.435Z,99203.56
2023-01-18T01:44:04.475Z,99217.69
2023-01-18T01:47:16.868Z,99213.44
2023-01-18T01:50:15.798Z,99221.16
2023-01-18T01:52:45.924Z,99217.91
2023-01-18T01:55:24.611Z,99220.00
2023-01-18T01:57:57.495Z,99215.97
2023-01-18T02:00:54.624Z,99226.63
2023-01-18T02:03:26.393Z,99220.72
2023-01-18T02:06:33.895Z,99217.72
2023-01-18T02:09:06.034Z,99226.50
2023-01-18T02:11:41.699Z,99235.06
2023-01-18T02:14:13.486Z,99238.56
2023-01-18T02:17:05.635Z,99240.63
2023-01-18T02:20:02.416Z,99239.59
2023-01-18T02:22:59.032Z,99246.75
2023-01-18T02:25:45.732Z,99250.22
2023-01-18T02:28:24.955Z,99242.00
2023-01-18T02:31:03.161Z,99249.19
2023-01-18T02:33:43.345Z,99248.38
2023-01-18T02:36:33.773Z,99244.66
2023-01-18T02:39:23.284Z,99256.34
2023-01-18T02:42:20.450Z,99256.94
2023-01-18T02:45:20.704Z,99254.72
2023-01-18T02:47:47.754Z,99262.72
2023-01-18T02:50:23.180Z,99259.47
2023-01-18T02:52:51.311Z,99271.16
2023-01-18T02:55:44.186Z,99265.03
2023-01-18T02:58:46.792Z,99262.84
2023-01-18T03:01:26.583Z,99258.78
2023-01-18T03:04:08.027Z,99260.84
2023-01-18T03:06:34.967Z,99267.22
2023-01-18T03:09:02.415Z,99266.63
2023-01-18T03:11:45.526Z,99262.94
2023-01-18T03:14:46.786Z,99272.53
2023-01-18T03:17:25.349Z,99263.75
2023-01-18T03:20:09.084Z,99268.25
2023-01-18T03:23:06.815Z,99269.88
2023-01-18T03:25:36.640Z,99276.47
2023-01-18T03:28:25.130Z,99272.41
2023-01-18T03:31:12.814Z,99276.13
2023-01-18T03:34:14.306Z,99270.78
2023-01-18T03:36:52.471Z,99277.16
2023-01-18T03:39:46.373Z,99272.66
2023-01-18T03:42:21.585Z,99269.19
2023-01-18T03:44:53.944Z,99272.41
2023-01-18T03:47:20.775Z,99276.13
2023-01-18T03:49:47.847Z,99272.66
2023-01-18T03:52:21.502Z,99273.91
2023-01-18T03:55:09.533Z,99271.25
2023-01-18T03:58:29.116Z,99271.25
2023-01-18T04:00:55.809Z,99277.03
2023-01-18T04:03:22.320Z,99280.72
2023-01-18T04:06:04.804Z,99295.91
2023-01-18T04:08:31.351Z,99288.72
2023-01-18T04:10:57.728Z,99281.78
2023-01-18T04:13:50.172Z,99285.72
2023-01-18T04:16:18.786Z,99281.44
2023-01-18T04:18:51.365Z,99279.56
2023-01-18T04:21:17.867Z,99292.28
2023-01-18T04:23:44.273Z,99290.66
2023-01-18T04:26:16.738Z,99292.97
2023-01-18T04:28:43.449Z,99289.97
2023-01-18T04:31:14.134Z,99295.72
2023-01-18T04:33:42.742Z,99301.03
2023-01-18T04:36:09.389Z,99300.47
2023-01-18T04:38:35.884Z,99299.44
2023-01-18T04:41:06.733Z,99303.69
2023-01-18T04:43:46.601Z,99309.84
2023-01-18T04:46:21.191Z,99306.38
2023-01-18T04:48:52.149Z,99311.22
2023-01-18T04:51:47.400Z,99323.47
2023-01-18T04:54:19.136Z,99316.53
2023-01-18T04:56:51.828Z,99311.22
2023-01-18T04:59:20.399Z,99317.59
2023-01-18T05:01:46.860Z,99313.31
2023-01-18T05:04:15.364Z,99318.63
2023-01-18T05:07:02.353Z,99322.69
2023-01-18T05:09:28.804Z,99323.47
2023-01-18T05:11:55.246Z,99326.97
2023-01-18T05:14:22.689Z,99329.97
2023-01-18T05:17:21.280Z,99327.56
2023-01-18T05:19:51.583Z,99325.69
2023-01-18T05:22:22.424Z,99334.50
2023-01-18T05:24:49.634Z,99335.75
2023-01-18T05:27:18.389Z,99336.56
2023-01-18T05:29:48.540Z,99336.78
2023-01-18T05:32:16.326Z,99334.56
2023-01-18T05:34:46.749Z,99342.53
2023-01-18T05:37:13.154Z,99350.53
2023-01-18T05:39:46.733Z,99344.41
2023-01-18T05:42:20.347Z,99353.44
2023-01-18T05:44:47.099Z,99353.19
2023-01-18T05:47:15.623Z,99359.78
2023-01-18T05:49:42.165Z,99363.69
2023-01-18T05:52:08.654Z,99361.25
2023-01-18T05:54:47.805Z,99365.75
2023-01-18T05:57:33.556Z,99366.59
2023-01-18T06:00:35.129Z,99370.03
2023-01-18T06:03:02.160Z,99376.38
2023-01-18T06:05:29.109Z,99383.34
2023-01-18T06:07:55.592Z,99371.91
2023-01-18T06:10:22.050Z,99363.69
2023-01-18T06:12:48.508Z,99374.91
2023-01-18T06:15:40.699Z,99385.31
2023-01-18T06:18:08.222Z,99387.28
2023-01-18T06:20:43.953Z,99385.22
2023-01-18T06:23:17.643Z,99386.06
2023-01-18T06:25:44.200Z,99393.78
2023-01-18T06:28:10.731Z,99402.78
2023-01-18T06:30:37.292Z,99401.56
2023-01-18T06:33:15.217Z,99411.38
2023-01-18T06:35:43.246Z,99402.13
2023-01-18T06:38:10.873Z,99406.19
2023-01-18T06:40:39.800Z,99408.38
2023-01-18T06:43:08.565Z,99406.31
2023-01-18T06:45:35.456Z,99413.63
2023-01-18T06:48:05.177Z,99412.00
2023-01-18T06:50:31.601Z,99418.69
2023-01-18T06:52:58.435Z,99420.13
2023-01-18T06:55:25.085Z,99426.81
2023-01-18T06:57:51.474Z,99428.22
2023-01-18T07:00:18.621Z,99429.03
2023-01-18T07:02:45.174Z,99427.78
2023-01-18T07:05:11.621Z,99426.50
2023-01-18T07:07:38.131Z,99431.81
2023-01-18T07:10:04.869Z,99435.88
2023-01-18T07:12:31.337Z,99434.59
2023-01-18T07:14:58.150Z,99441.56
2023-01-18T07:17:24.604Z,99441.56
2023-01-18T07:19:51.119Z,99440.50
2023-01-18T07:22:17.576Z,99436.81
2023-01-18T07:24:44.010Z,99442.13
2023-01-18T07:27:10.653Z,99446.41
2023-01-18T07:29:37.106Z,99453.56
2023-01-18T07:32:03.863Z,99451.50
2023-01-18T07:34:30.463Z,99454.41
2023-01-18T07:36:56.980Z,99451.75
2023-01-18T07:39:25.391Z,99460.31
2023-01-18T07:41:51.817Z,99461.09
2023-01-18T07:44:18.820Z,99464.34
2023-01-18T07:46:46.947Z,99473.75
2023-01-18T07:49:21.412Z,99475.38
2023-01-18T07:51:56.080Z,99472.47
2023-01-18T07:54:22.528Z,99473.28
2023-01-18T07:56:48.957Z,99469.59
2023-01-18T07:59:15.867Z,99481.84
2023-01-18T08:01:42.465Z,99476.53
2023-01-18T08:04:09.567Z,99474.47
2023-01-18T08:06:35.990Z,99482.19
2023-01-18T08:09:02.522Z,99491.59
2023-01-18T08:11:29.407Z,99486.28
2023-01-18T08:13:56.042Z,99494.84
2023-01-18T08:16:22.594Z,99498.09
2023-01-18T08:18:50.223Z,99507.91
2023-01-18T08:21:16.910Z,99504.00
2023-01-18T08:23:43.473Z,99508.28
2023-01-18T08:26:10.638Z,99515.22
2023-01-18T08:28:37.184Z,99520.31
2023-01-18T08:31:10.987Z,99519.84
2023-01-18T08:33:39.714Z,99523.94
2023-01-18T08:36:10.446Z,99525.09
2023-01-18T08:38:36.861Z,99530.09
2023-01-18T08:41:04.193Z,99526.97
2023-01-18T08:43:30.746Z,99532.19
2023-01-18T08:45:57.209Z,99532.31
2023-01-18T08:48:23.616Z,99533.34
2023-01-18T08:50:51.695Z,99528.16
2023-01-18T08:53:18.192Z,99527.34
2023-01-18T08:55:44.537Z,99535.00
2023-01-18T08:58:12.053Z,99529.91
2023-01-18T09:00:38.423Z,99533.38
2023-01-18T09:03:06.763Z,99536.13
2023-01-18T09:05:35.623Z,99540.53
2023-01-18T09:08:02.560Z,99546.97
2023-01-18T09:10:29.027Z,99543.09
2023-01-18T09:12:55.648Z,99539.75
2023-01-18T09:15:22.069Z,99555.03
2023-01-18T09:17:48.483Z,99553.50
2023-01-18T09:20:17.728Z,99553.63
2023-01-18T09:22:45.470Z,99554.75
2023-01-18T09:25:11.894Z,99565.31
2023-01-18T09:27:38.258Z,99563.53
2023-01-18T09:30:06.620Z,99565.16
2023-01-18T09:32:33.011Z,99567.94
2023-01-18T09:35:01.152Z,99572.78
2023-01-18T09:37:27.662Z,99569.88
2023-01-18T09:39:54.084Z,99581.22
2023-01-18T09:42:23.955Z,99571.09
2023-01-18T09:44:54.205Z,99569.56
2023-01-18T09:47:24.637Z,99574.91
2023-01-18T09:49:59.358Z,99577.38
2023-01-18T09:52:51.956Z,99582.72
2023-01-18T09:55:51.054Z,99587.22
2023-01-18T09:59:01.535Z,99577.38
2023-01-18T10:01:32.353Z,99584.66
2023-01-18T10:04:18.469Z,99589.84
2023-01-18T10:06:53.804Z,99592.53
2023-01-18T10:09:28.387Z,99585.88
2023-01-18T10:12:14.624Z,99587.75
2023-01-18T10:14:51.141Z,99584.59
2023-01-18T10:17:21.384Z,99581.38
2023-01-18T10:19:47.797Z,99586.31
2023-01-18T10:22:25.431Z,99587.06
2023-01-18T10:24:57.341Z,99577.31
2023-01-18T10:27:48.753Z,99580.06
2023-01-18T10:30:32.334Z,99572.97
2023-01-18T10:33:01.835Z,99569.63
2023-01-18T10:35:34.537Z,99573.69
2023-01-18T10:38:05.954Z,99574.50
2023-01-18T10:40:33.973Z,99579.63
2023-01-18T10:43:02.320Z,99577.09
2023-01-18T10:45:32.081Z,99578.81
2023-01-18T10:48:18.420Z,99584.25
2023-01-18T10:50:53.059Z,99582.84
2023-01-18T10:53:33.091Z,99586.47
2023-01-18T10:56:19.670Z,99591.66
2023-01-18T10:58:52.047Z,99593.09
2023-01-18T11:01:20.371Z,99596.25
2023-01-18T11:03:50.939Z,99587.25
2023-01-18T11:06:19.221Z,99581.31
2023-01-18T11:08:45.714Z,99575.88
2023-01-18T11:11:50.276Z,99584.09
2023-01-18T11:14:30.780Z,99590.03
2023-01-18T11:17:11.367Z,99583.34
2023-01-18T11:19:41.673Z,99599.47
2023-01-18T11:22:13.125Z,99600.19
2023-01-18T11:24:39.944Z,99601.59
2023-01-18T11:27:13.876Z,99598.03
2023-01-18T11:29:45.663Z,99588.94
2023-01-18T11:32:24.681Z,99593.88
2023-01-18T11:34:53.471Z,99599.06
2023-01-18T11:37:34.724Z,99598.19
2023-01-18T11:40:26.855Z,99597.44
2023-01-18T11:43:22.897Z,99582.13
2023-01-18T11:45:59.494Z,99593.56
2023-01-18T11:48:33.209Z,99583.28
2023-01-18T11:51:07.243Z,99588.06
2023-01-18T11:54:11.746Z,99592.91
2023-01-18T11:56:49.531Z,99595.38
2023-01-18T11:59:42.476Z,99592.03
2023-01-18T12:02:36.998Z,99605.88
2023-01-18T12:05:28.283Z,99598.97
2023-01-18T12:08:11.946Z,99590.44
2023-01-18T12:11:01.849Z,99594.16
2023-01-18T12:13:34.404Z,99596.88
2023-01-18T12:16:19.611Z,99601.72
2023-01-18T12:19:25.402Z,99596.03
2023-01-18T12:22:03.820Z,99602.22
2023-01-18T12:24:49.344Z,99598.78
2023-01-18T12:27:34.755Z,99599.47
2023-01-18T12:30:22.364Z,99601.22
2023-01-18T12:33:38.187Z,99592.25
2023-01-18T12:36:12.033Z,99592.47
2023-01-18T12:38:45.444Z,99596.94
2023-01-18T12:41:40.682Z,99578.59
2023-01-18T12:44:31.324Z,99593.38
2023-01-18T12:47:11.655Z,99594.03
2023-01-18T12:49:45.621Z,99594.19
2023-01-18T12:52:19.159Z,99583.69
2023-01-18T12:54:50.982Z,99586.09
2023-01-18T12:57:19.650Z,99586.69
2023-01-18T12:59:50.813Z,99587.22
2023-01-18T13:02:35.325Z,99597.97
2023-01-18T13:05:19.011Z,99598.25
2023-01-18T13:08:04.505Z,99598.00
2023-01-18T13:10:31.115Z,99596.38
2023-01-18T13:12:58.339Z,99584.69
2023-01-18T13:15:36.914Z,99588.91
2023-01-18T13:18:39.453Z,99598.53
2023-01-18T13:21:32.089Z,99599.06
2023-01-18T13:24:08.674Z,99602.69
2023-01-18T13:26:35.971Z,99606.91
2023-01-18T13:29:06.391Z,99607.56
2023-01-18T13:31:33.257Z,99623.25
2023-01-18T13:33:59.815Z,99611.44
2023-01-18T13:36:26.275Z,99620.03
2023-01-18T13:39:00.992Z,99617.81
2023-01-18T13:41:29.438Z,99628.50
2023-01-18T13:44:05.441Z,99623.03
2023-01-18T13:46:36.488Z,99630.75
2023-01-18T13:49:36.188Z,99628.22
2023-01-18T13:52:33.484Z,99627.09
2023-01-18T13:55:04.163Z,99632.63
2023-01-18T13:57:33.168Z,99633.66
2023-01-18T14:00:00.231Z,99640.88
2023-01-18T14:02:44.774Z,99638.97
2023-01-18T14:05:25.242Z,99651.03
2023-01-18T14:07:55.657Z,99642.41
2023-01-18T14:10:38.761Z,99642.94
2023-01-18T14:13:15.392Z,99632.19
2023-01-18T14:15:41.700Z,99643.44
2023-01-18T14:18:26.595Z,99655.00
2023-01-18T14:21:11.486Z,99669.47
2023-01-18T14:23:56.651Z,99676.16
2023-01-18T14:26:28.937Z,99669.16
2023-01-18T14:29:07.344Z,99669.66
2023-01-18T14:31:38.841Z,99679.84
2023-01-18T14:34:30.840Z,99676.88
2023-01-18T14:36:57.732Z,99682.47
2023-01-18T14:39:24.481Z,99679.00
2023-01-18T14:41:55.769Z,99682.97
2023-01-18T14:44:26.711Z,99685.94
2023-01-18T14:46:55.998Z,99694.50
2023-01-18T14:49:35.291Z,99692.53
2023-01-18T14:52:03.694Z,99698.41
2023-01-18T14:54:31.216Z,99698.41
2023-01-18T14:57:05.908Z,99695.72
2023-01-18T14:59:33.250Z,99694.38
2023-01-18T15:02:14.747Z,99704.81
2023-01-18T15:04:45.532Z,99705.31
2023-01-18T15:07:23.807Z,99697.22
2023-01-18T15:09:50.654Z,99705.50
2023-01-18T15:12:21.284Z,99712.19
2023-01-18T15:14:50.425Z,99706.81
2023-01-18T15:17:24.283Z,99705.44
2023-01-18T15:19:58.696Z,99706.75
2023-01-18T15:22:34.359Z,99709.44
2023-01-18T15:25:01.479Z,99707.81
2023-01-18T15:27:31.745Z,99709.94
2023-01-18T15:30:00.571Z,99709.63
2023-01-18T15:32:28.986Z,99709.63
2023-01-18T15:34:57.099Z,99705.09
2023-01-18T15:37:31.099Z,99697.03
2023-01-18T15:39:58.753Z,99704.19
2023-01-18T15:42:30.363Z,99707.69
2023-01-18T15:44:58.999Z,99709.81
2023-01-18T15:47:28.871Z,99719.47
2023-01-18T15:49:59.481Z,99708.19
2023-01-18T15:52:43.938Z,99705.47
2023-01-18T15:55:24.404Z,99698.47
2023-01-18T15:57:59.605Z,99703.00
2023-01-18T16:00:29.532Z,99696.84
2023-01-18T16:02:56.304Z,99703.84
2023-01-18T16:05:25.203Z,99705.47
2023-01-18T16:08:15.874Z,99714.56
2023-01-18T16:10:56.470Z,99718.84
2023-01-18T16:13:31.771Z,99718.28
2023-01-18T16:16:24.455Z,99729.81
2023-01-18T16:19:04.255Z,99729.50
2023-01-18T16:22:02.097Z,99730.88
2023-01-18T16:24:46.056Z,99731.69
2023-01-18T16:27:20.535Z,99737.63
2023-01-18T16:29:59.721Z,99737.63
2023-01-18T16:32:29.811Z,99741.91
2023-01-18T16:34:59.899Z,99739.22
2023-01-18T16:37:26.817Z,99737.63
2023-01-18T16:39:55.324Z,99742.97
2023-01-18T16:42:29.652Z,99741.91
2023-01-18T16:45:03.986Z,99745.09
2023-01-18T16:47:30.353Z,99752.06
2023-01-18T16:49:56.719Z,99750.44
2023-01-18T16:52:23.224Z,99749.88
2023-01-18T16:54:49.586Z,99753.63
2023-01-18T16:57:20.380Z,99758.41
2023-01-18T16:59:47.423Z,99760.75
2023-01-18T17:02:14.128Z,99765.91
2023-01-18T17:04:40.561Z,99766.94
2023-01-18T17:07:08.627Z,99780.34
2023-01-18T17:09:47.324Z,99776.84
2023-01-18T17:12:14.584Z,99781.97
2023-01-18T17:14:40.938Z,99776.13
2023-01-18T17:17:09.554Z,99771.50
2023-01-18T17:19:37.662Z,99771.50
2023-01-18T17:22:07.318Z,99776.63
2023-01-18T17:24:33.917Z,99787.34
2023-01-18T17:27:01.225Z,99779.53
2023-01-18T17:29:30.616Z,99782.75
2023-01-18T17:31:58.158Z,99791.63
2023-01-18T17:34:28.755Z,99795.09
2023-01-18T17:37:03.480Z,99787.63
2023-01-18T17:39:50.065Z,99789.25
2023-01-18T17:42:30.504Z,99792.19
2023-01-18T17:45:03.227Z,99792.69
2023-01-18T17:47:34.718Z,99792.69
2023-01-18T17:50:08.551Z,99794.81
2023-01-18T17:52:36.325Z,99795.88
2023-01-18T17:55:03.219Z,99808.75
2023-01-18T17:57:29.664Z,99808.75
2023-01-18T17:59:56.189Z,99818.91
2023-01-18T18:02:23.634Z,99832.31
2023-01-18T18:04:50.841Z,99833.09
2023-01-18T18:07:40.218Z,99833.94
2023-01-18T18:10:22.923Z,99840.34
2023-01-18T18:12:59.899Z,99838.16
2023-01-18T18:15:26.527Z,99836.78
2023-01-18T18:17:54.991Z,99841.59
2023-01-18T18:20:23.632Z,99842.66
2023-01-18T18:22:50.033Z,99846.59
2023-01-18T18:25:16.380Z,99834.28
2023-01-18T18:27:46.988Z,99844.41
2023-01-18T18:30:14.798Z,99837.13
2023-01-18T18:32:41.197Z,99844.59
2023-01-18T18:35:23.088Z,99853.44
2023-01-18T18:37:50.662Z,99856.03
2023-01-18T18:40:24.399Z,99864.06
2023-01-18T18:43:01.278Z,99865.13
2023-01-18T18:45:30.351Z,99859.75
2023-01-18T18:48:43.653Z,99866.44
2023-01-18T18:51:11.300Z,99855.38
2023-01-18T18:53:40.671Z,99868.75
2023-01-18T18:56:10.052Z,99870.63
2023-01-18T18:58:37.346Z,99868.75
2023-01-18T19:01:04.027Z,99869.81
2023-01-18T19:03:30.972Z,99871.34
2023-01-18T19:05:57.462Z,99874.59
2023-01-18T19:08:25.962Z,99863.88
2023-01-18T19:10:52.392Z,99869.16
2023-01-18T19:13:19.407Z,99874.84
2023-01-18T19:15:47.468Z,99871.59
2023-01-18T19:18:14.780Z,99876.13
2023-01-18T19:20:41.807Z,99872.88
2023-01-18T19:23:15.261Z,99878.00
2023-01-18T19:25:41.677Z,99880.34
2023-01-18T19:28:13.224Z,99882.44
2023-01-18T19:30:41.418Z,99881.66
2023-01-18T19:33:08.607Z,99887.00
2023-01-18T19:35:41.144Z,99882.94
2023-01-18T19:38:08.596Z,99888.28
2023-01-18T19:40:35.845Z,99896.56
2023-01-18T19:43:02.743Z,99903.22
2023-01-18T19:45:31.555Z,99909.13
2023-01-18T19:48:00.640Z,99918.31
2023-01-18T19:50:29.292Z,99917.84
2023-01-18T19:52:55.911Z,99916.22
2023-01-18T19:55:23.129Z,99915.16
2023-01-18T19:57:51.014Z,99916.56
2023-01-18T20:00:17.888Z,99897.25
2023-01-18T20:02:44.698Z,99900.13
2023-01-18T20:05:12.275Z,99905.84
2023-01-18T20:07:39.527Z,99898.88
2023-01-18T20:10:07.289Z,99906.31
2023-01-18T20:12:34.193Z,99903.66
2023-01-18T20:15:00.675Z,99907.59
2023-01-18T20:17:27.099Z,99911.59
2023-01-18T20:19:54.599Z,99905.34
2023-01-18T20:22:22.387Z,99913.13
2023-01-18T20:24:49.255Z,99905.81
2023-01-18T20:27:17.114Z,99911.19
2023-01-18T20:29:44.335Z,99913.75
2023-01-18T20:32:16.746Z,99901.44
2023-01-18T20:34:44.713Z,99910.50
2023-01-18T20:37:12.738Z,99912.59
2023-01-18T20:39:39.689Z,99912.03
2023-01-18T20:42:06.129Z,99914.34
2023-01-18T20:44:34.453Z,99913.00
2023-01-18T20:47:00.944Z,99914.84
2023-01-18T20:49:36.962Z,99917.28
2023-01-18T20:52:05.974Z,99921.00
2023-01-18T20:54:43.278Z,99913.00
2023-01-18T20:57:10.728Z,99930.09
2023-01-18T20:59:37.074Z,99926.59
2023-01-18T21:02:03.724Z,99930.56
2023-01-18T21:04:30.290Z,99927.41
2023-01-18T21:06:59.565Z,99937.06
2023-01-18T21:09:26.043Z,99928.56
2023-01-18T21:11:52.443Z,99934.50
2023-01-18T21:14:18.831Z,99943.09
2023-01-18T21:16:45.229Z,99946.34
2023-01-18T21:19:11.667Z,99954.13
2023-01-18T21:21:38.134Z,99947.97
2023-01-18T21:24:04.710Z,99961.47
2023-01-18T21:26:32.471Z,99964.72
2023-01-18T21:28:59.285Z,99960.16
2023-01-18T21:31:25.745Z,99970.38
2023-01-18T21:33:53.410Z,99977.63
2023-01-18T21:36:20.270Z,99985.97
2023-01-18T21:38:46.814Z,99993.75
2023-01-18T21:41:31.669Z,99996.22
2023-01-18T21:44:16.590Z,100009.81
2023-01-18T21:46:47.547Z,100019.72
2023-01-18T21:49:47.058Z,100022.63
2023-01-18T21:52:32.106Z,100023.13
2023-01-18T21:54:58.462Z,100018.72
2023-01-18T21:57:24.926Z,100024.28
2023-01-18T21:59:51.291Z,100030.38
2023-01-18T22:02:17.821Z,100029.69
2023-01-18T22:05:00.071Z,100037.59
2023-01-18T22:07:28.044Z,100030.97
2023-01-18T22:10:04.145Z,100031.81
2023-01-18T22:12:32.602Z,100036.47
2023-01-18T22:15:01.391Z,100032.03
2023-01-18T22:17:27.890Z,100038.91
2023-01-18T22:19:54.362Z,100036.56
2023-01-18T22:22:20.745Z,100040.16
2023-01-18T22:24:47.113Z,100032.03
2023-01-18T22:27:13.649Z,100033.78
2023-01-18T22:29:40.020Z,100041.69
2023-01-18T22:32:06.415Z,100039.22
2023-01-18T22:34:34.817Z,100042.72
2023-01-18T22:37:01.197Z,100025.28
2023-01-18T22:39:27.540Z,100026.31
2023-01-18T22:41:53.939Z,100042.94
2023-01-18T22:44:20.293Z,100030.03
2023-01-18T22:46:46.646Z,100026.09
2023-01-18T22:49:13.058Z,100024.59
2023-01-18T22:51:39.632Z,100026.44
2023-01-18T22:54:06.265Z,100029.34
2023-01-18T22:56:34.157Z,100032.50
2023-01-18T22:59:00.574Z,100023.63
2023-01-18T23:01:30.902Z,100033.28
2023-01-18T23:04:02.251Z,100025.84
2023-01-18T23:06:42.186Z,100025.63
2023-01-18T23:09:10.095Z,100025.97
2023-01-18T23:11:37.174Z,100029.69
2023-01-18T23:14:22.856Z,100028.44
2023-01-18T23:17:07.464Z,100035.03
2023-01-18T23:19:33.869Z,100035.16
2023-01-18T23:22:00.440Z,100034.13
2023-01-18T23:24:26.840Z,100036.56
2023-01-18T23:26:53.234Z,100033.19
2023-01-18T23:29:20.209Z,100035.41
2023-01-18T23:31:46.916Z,100033.91
2023-01-18T23:34:13.793Z,100034.25
2023-01-18T23:36:40.209Z,100037.84
2023-01-18T23:39:25.413Z,100044.84
2023-01-18T23:42:10.525Z,100044.38
2023-01-18T23:44:55.439Z,100044.72
2023-01-18T23:47:40.319Z,100042.16
2023-01-18T23:50:25.564Z,100042.50
2023-01-18T23:53:10.411Z,100039.94
2023-01-18T23:55:36.965Z,100042.38
2023-01-18T23:58:03.549Z,100039.00
